sensor_id;sensor_type;location;lat;lon;timestamp;temperature;humidity
29207;DHT22;16247;50.840;4.382;2023-04-15T00:00:15;11.60;99.90
29207;DHT22;16247;50.840;4.382;2023-04-15T00:02:46;11.70;99.90
29207;DHT22;16247;50.840;4.382;2023-04-15T00:05:32;11.80;99.90
29207;DHT22;16247;50.840;4.382;2023-04-15T00:08:00;11.90;99.90
29207;DHT22;16247;50.840;4.382;2023-04-15T00:10:53;11.90;99.90
29207;DHT22;16247;50.840;4.382;2023-04-15T00:13:46;11.80;99.90
29207;DHT22;16247;50.840;4.382;2023-04-15T00:16:31;11.80;99.90
29207;DHT22;16247;50.840;4.382;2023-04-15T00:19:08;11.90;99.90
29207;DHT22;16247;50.840;4.382;2023-04-15T00:21:45;11.90;99.90
29207;DHT22;16247;50.840;4.382;2023-04-15T00:24:24;12.00;99.90
29207;DHT22;16247;50.840;4.382;2023-04-15T00:27:00;11.80;99.90
29207;DHT22;16247;50.840;4.382;2023-04-15T00:29:37;11.80;99.90
29207;DHT22;16247;50.840;4.382;2023-04-15T00:38:31;11.70;99.90
29207;DHT22;16247;50.840;4.382;2023-04-15T00:40:57;11.80;99.90
29207;DHT22;16247;50.840;4.382;2023-04-15T00:43:24;11.80;99.90
29207;DHT22;16247;50.840;4.382;2023-04-15T00:52:13;11.80;99.90
29207;DHT22;16247;50.840;4.382;2023-04-15T00:55:02;11.80;99.90
29207;DHT22;16247;50.840;4.382;2023-04-15T00:57:52;11.90;99.90
29207;DHT22;16247;50.840;4.382;2023-04-15T01:00:22;11.90;99.90
29207;DHT22;16247;50.840;4.382;2023-04-15T01:05:52;11.90;99.90
29207;DHT22;16247;50.840;4.382;2023-04-15T01:14:24;11.80;99.90
29207;DHT22;16247;50.840;4.382;2023-04-15T01:16:57;11.70;99.90
29207;DHT22;16247;50.840;4.382;2023-04-15T01:22:14;11.80;99.90
29207;DHT22;16247;50.840;4.382;2023-04-15T01:24:44;11.80;99.90
29207;DHT22;16247;50.840;4.382;2023-04-15T01:27:20;11.70;99.90
29207;DHT22;16247;50.840;4.382;2023-04-15T01:29:52;11.80;99.90
29207;DHT22;16247;50.840;4.382;2023-04-15T01:32:39;11.60;99.90
29207;DHT22;16247;50.840;4.382;2023-04-15T01:35:10;11.50;99.90
29207;DHT22;16247;50.840;4.382;2023-04-15T01:38:11;11.60;99.90
29207;DHT22;16247;50.840;4.382;2023-04-15T01:40:58;11.70;99.90
29207;DHT22;16247;50.840;4.382;2023-04-15T01:43:44;11.70;99.90
29207;DHT22;16247;50.840;4.382;2023-04-15T01:46:11;11.60;99.90
29207;DHT22;16247;50.840;4.382;2023-04-15T01:48:59;11.60;99.90
29207;DHT22;16247;50.840;4.382;2023-04-15T01:51:34;11.60;99.90
29207;DHT22;16247;50.840;4.382;2023-04-15T01:54:10;11.60;99.90
29207;DHT22;16247;50.840;4.382;2023-04-15T02:08:52;11.30;99.90
29207;DHT22;16247;50.840;4.382;2023-04-15T02:11:20;11.10;99.90
29207;DHT22;16247;50.840;4.382;2023-04-15T02:13:47;11.40;99.90
29207;DHT22;16247;50.840;4.382;2023-04-15T02:16:35;11.60;99.90
29207;DHT22;16247;50.840;4.382;2023-04-15T02:19:10;11.30;99.90
29207;DHT22;16247;50.840;4.382;2023-04-15T02:21:37;11.30;99.90
29207;DHT22;16247;50.840;4.382;2023-04-15T02:24:04;11.40;99.90
29207;DHT22;16247;50.840;4.382;2023-04-15T02:26:38;11.30;99.90
29207;DHT22;16247;50.840;4.382;2023-04-15T02:29:35;11.30;99.90
29207;DHT22;16247;50.840;4.382;2023-04-15T02:32:27;11.60;99.90
29207;DHT22;16247;50.840;4.382;2023-04-15T02:34:53;11.40;99.90
29207;DHT22;16247;50.840;4.382;2023-04-15T02:40:10;11.30;99.90
29207;DHT22;16247;50.840;4.382;2023-04-15T02:42:45;11.30;99.90
29207;DHT22;16247;50.840;4.382;2023-04-15T02:51:20;11.10;99.90
29207;DHT22;16247;50.840;4.382;2023-04-15T02:54:22;11.10;99.90
29207;DHT22;16247;50.840;4.382;2023-04-15T02:59:51;11.10;99.90
29207;DHT22;16247;50.840;4.382;2023-04-15T03:09:02;11.00;99.90
29207;DHT22;16247;50.840;4.382;2023-04-15T03:12:12;10.90;99.90
29207;DHT22;16247;50.840;4.382;2023-04-15T03:15:14;10.80;99.90
29207;DHT22;16247;50.840;4.382;2023-04-15T03:24:00;10.70;99.90
29207;DHT22;16247;50.840;4.382;2023-04-15T03:27:14;11.10;99.90
29207;DHT22;16247;50.840;4.382;2023-04-15T03:33:28;11.00;99.90
29207;DHT22;16247;50.840;4.382;2023-04-15T03:48:19;10.80;99.90
29207;DHT22;16247;50.840;4.382;2023-04-15T03:53:33;10.70;99.90
29207;DHT22;16247;50.840;4.382;2023-04-15T03:56:37;10.60;99.90
29207;DHT22;16247;50.840;4.382;2023-04-15T04:01:54;10.50;99.90
29207;DHT22;16247;50.840;4.382;2023-04-15T04:07:25;10.20;99.90
29207;DHT22;16247;50.840;4.382;2023-04-15T04:15:44;10.10;99.90
29207;DHT22;16247;50.840;4.382;2023-04-15T04:18:52;10.10;99.90
29207;DHT22;16247;50.840;4.382;2023-04-15T04:21:59;9.90;99.90
29207;DHT22;16247;50.840;4.382;2023-04-15T04:33:17;10.20;99.90
29207;DHT22;16247;50.840;4.382;2023-04-15T04:35:49;10.30;99.90
29207;DHT22;16247;50.840;4.382;2023-04-15T04:38:20;10.30;99.90
29207;DHT22;16247;50.840;4.382;2023-04-15T04:46:51;10.20;99.90
29207;DHT22;16247;50.840;4.382;2023-04-15T06:27:43;10.20;99.90
29207;DHT22;16247;50.840;4.382;2023-04-15T06:30:19;10.40;99.90
29207;DHT22;16247;50.840;4.382;2023-04-15T06:32:45;10.40;99.90
29207;DHT22;16247;50.840;4.382;2023-04-15T06:35:10;10.40;99.90
29207;DHT22;16247;50.840;4.382;2023-04-15T06:40:22;10.50;99.90
29207;DHT22;16247;50.840;4.382;2023-04-15T08:43:25;12.90;99.90
29207;DHT22;16247;50.840;4.382;2023-04-15T08:51:53;13.30;99.90
29207;DHT22;16247;50.840;4.382;2023-04-15T12:30:49;17.10;99.90
29207;DHT22;16247;50.840;4.382;2023-04-15T12:33:15;17.30;99.90
29207;DHT22;16247;50.840;4.382;2023-04-15T12:35:41;17.40;99.90
29207;DHT22;16247;50.840;4.382;2023-04-15T12:38:08;17.20;99.90
29207;DHT22;16247;50.840;4.382;2023-04-15T12:40:35;17.00;99.90
29207;DHT22;16247;50.840;4.382;2023-04-15T12:43:00;17.10;99.90
29207;DHT22;16247;50.840;4.382;2023-04-15T12:45:29;17.20;99.90
29207;DHT22;16247;50.840;4.382;2023-04-15T12:47:56;17.40;99.90
29207;DHT22;16247;50.840;4.382;2023-04-15T12:50:23;17.60;99.90
29207;DHT22;16247;50.840;4.382;2023-04-15T12:52:48;17.50;99.90
29207;DHT22;16247;50.840;4.382;2023-04-15T12:55:20;17.60;99.90
29207;DHT22;16247;50.840;4.382;2023-04-15T12:57:45;17.50;98.80
29207;DHT22;16247;50.840;4.382;2023-04-15T13:00:11;17.40;99.10
29207;DHT22;16247;50.840;4.382;2023-04-15T13:02:38;17.40;99.40
29207;DHT22;16247;50.840;4.382;2023-04-15T13:05:04;17.40;99.40
